sensor_id;sensor_type;location;lat;lon;timestamp;P1;durP1;ratioP1;P2;durP2;ratioP2
67665;SDS011;54448;51.472;-2.574;2023-04-15T00:01:07;20.83;;;9.05;;
67665;SDS011;54448;51.472;-2.574;2023-04-15T00:03:34;17.25;;;7.68;;
67665;SDS011;54448;51.472;-2.574;2023-04-15T00:05:59;20.55;;;8.23;;
67665;SDS011;54448;51.472;-2.574;2023-04-15T00:08:25;17.10;;;7.75;;
67665;SDS011;54448;51.472;-2.574;2023-04-15T00:10:51;19.40;;;7.22;;
67665;SDS011;54448;51.472;-2.574;2023-04-15T00:13:17;17.95;;;8.00;;
67665;SDS011;54448;51.472;-2.574;2023-04-15T00:15:42;17.35;;;8.40;;
67665;SDS011;54448;51.472;-2.574;2023-04-15T00:18:07;22.73;;;8.85;;
67665;SDS011;54448;51.472;-2.574;2023-04-15T00:20:33;18.67;;;8.27;;
67665;SDS011;54448;51.472;-2.574;2023-04-15T00:22:59;14.50;;;7.32;;
67665;SDS011;54448;51.472;-2.574;2023-04-15T00:25:26;17.98;;;7.97;;
67665;SDS011;54448;51.472;-2.574;2023-04-15T00:27:52;19.75;;;8.15;;
67665;SDS011;54448;51.472;-2.574;2023-04-15T00:30:17;13.75;;;6.72;;
67665;SDS011;54448;51.472;-2.574;2023-04-15T00:32:43;13.68;;;7.20;;
67665;SDS011;54448;51.472;-2.574;2023-04-15T00:35:08;18.02;;;7.40;;
67665;SDS011;54448;51.472;-2.574;2023-04-15T00:37:34;15.50;;;6.72;;
67665;SDS011;54448;51.472;-2.574;2023-04-15T00:40:00;21.58;;;8.20;;
67665;SDS011;54448;51.472;-2.574;2023-04-15T00:42:29;12.70;;;5.25;;
67665;SDS011;54448;51.472;-2.574;2023-04-15T00:44:55;10.45;;;4.40;;
67665;SDS011;54448;51.472;-2.574;2023-04-15T00:47:21;10.82;;;4.70;;
67665;SDS011;54448;51.472;-2.574;2023-04-15T00:49:46;11.88;;;5.03;;
67665;SDS011;54448;51.472;-2.574;2023-04-15T00:52:12;12.50;;;5.53;;
67665;SDS011;54448;51.472;-2.574;2023-04-15T00:54:37;13.65;;;5.32;;
67665;SDS011;54448;51.472;-2.574;2023-04-15T00:57:04;12.55;;;5.43;;
67665;SDS011;54448;51.472;-2.574;2023-04-15T00:59:30;20.45;;;5.88;;
67665;SDS011;54448;51.472;-2.574;2023-04-15T01:01:56;14.45;;;5.30;;
67665;SDS011;54448;51.472;-2.574;2023-04-15T01:04:21;15.18;;;5.13;;
67665;SDS011;54448;51.472;-2.574;2023-04-15T01:06:46;8.82;;;4.82;;
67665;SDS011;54448;51.472;-2.574;2023-04-15T01:09:12;14.65;;;4.60;;
67665;SDS011;54448;51.472;-2.574;2023-04-15T01:11:37;11.05;;;5.03;;
67665;SDS011;54448;51.472;-2.574;2023-04-15T01:14:03;11.48;;;4.43;;
67665;SDS011;54448;51.472;-2.574;2023-04-15T01:16:28;8.93;;;4.22;;
67665;SDS011;54448;51.472;-2.574;2023-04-15T01:18:54;12.23;;;4.38;;
67665;SDS011;54448;51.472;-2.574;2023-04-15T01:21:20;9.00;;;4.05;;
67665;SDS011;54448;51.472;-2.574;2023-04-15T01:23:46;16.65;;;3.65;;
67665;SDS011;54448;51.472;-2.574;2023-04-15T01:26:12;13.70;;;4.13;;
67665;SDS011;54448;51.472;-2.574;2023-04-15T01:28:38;10.40;;;3.90;;
67665;SDS011;54448;51.472;-2.574;2023-04-15T01:31:10;8.45;;;4.22;;
67665;SDS011;54448;51.472;-2.574;2023-04-15T01:33:39;11.82;;;3.92;;
67665;SDS011;54448;51.472;-2.574;2023-04-15T01:36:06;17.75;;;6.53;;
67665;SDS011;54448;51.472;-2.574;2023-04-15T01:38:35;9.75;;;4.38;;
67665;SDS011;54448;51.472;-2.574;2023-04-15T01:41:01;7.78;;;3.85;;
67665;SDS011;54448;51.472;-2.574;2023-04-15T01:43:28;9.35;;;3.88;;
67665;SDS011;54448;51.472;-2.574;2023-04-15T01:45:54;8.20;;;4.00;;
67665;SDS011;54448;51.472;-2.574;2023-04-15T01:48:20;9.82;;;3.55;;
67665;SDS011;54448;51.472;-2.574;2023-04-15T01:50:46;5.72;;;3.00;;
67665;SDS011;54448;51.472;-2.574;2023-04-15T01:53:11;15.00;;;3.28;;
67665;SDS011;54448;51.472;-2.574;2023-04-15T01:55:36;10.07;;;3.63;;
67665;SDS011;54448;51.472;-2.574;2023-04-15T01:58:02;12.18;;;4.00;;
67665;SDS011;54448;51.472;-2.574;2023-04-15T02:00:27;19.58;;;5.53;;
67665;SDS011;54448;51.472;-2.574;2023-04-15T02:02:53;14.18;;;3.80;;
67665;SDS011;54448;51.472;-2.574;2023-04-15T02:05:19;9.48;;;3.50;;
67665;SDS011;54448;51.472;-2.574;2023-04-15T02:07:44;7.38;;;3.50;;
67665;SDS011;54448;51.472;-2.574;2023-04-15T02:10:10;8.40;;;3.15;;
67665;SDS011;54448;51.472;-2.574;2023-04-15T02:12:37;9.15;;;3.08;;
67665;SDS011;54448;51.472;-2.574;2023-04-15T02:15:03;6.03;;;2.90;;
67665;SDS011;54448;51.472;-2.574;2023-04-15T02:17:29;8.02;;;3.05;;
67665;SDS011;54448;51.472;-2.574;2023-04-15T02:19:54;8.93;;;3.17;;
67665;SDS011;54448;51.472;-2.574;2023-04-15T02:22:20;8.50;;;2.90;;
67665;SDS011;54448;51.472;-2.574;2023-04-15T02:24:46;6.05;;;2.50;;
67665;SDS011;54448;51.472;-2.574;2023-04-15T02:27:14;4.82;;;2.90;;
67665;SDS011;54448;51.472;-2.574;2023-04-15T02:29:42;7.18;;;3.00;;
67665;SDS011;54448;51.472;-2.574;2023-04-15T02:32:08;9.65;;;3.25;;
67665;SDS011;54448;51.472;-2.574;2023-04-15T02:34:33;8.93;;;2.85;;
67665;SDS011;54448;51.472;-2.574;2023-04-15T02:36:58;7.75;;;2.75;;
67665;SDS011;54448;51.472;-2.574;2023-04-15T02:39:25;16.10;;;3.33;;
67665;SDS011;54448;51.472;-2.574;2023-04-15T02:41:50;6.10;;;2.75;;
67665;SDS011;54448;51.472;-2.574;2023-04-15T02:44:16;6.03;;;2.53;;
67665;SDS011;54448;51.472;-2.574;2023-04-15T02:46:46;7.05;;;2.88;;
67665;SDS011;54448;51.472;-2.574;2023-04-15T02:49:16;9.20;;;2.85;;
67665;SDS011;54448;51.472;-2.574;2023-04-15T02:51:42;13.88;;;3.38;;
67665;SDS011;54448;51.472;-2.574;2023-04-15T02:54:07;7.00;;;2.90;;
67665;SDS011;54448;51.472;-2.574;2023-04-15T02:56:33;7.75;;;2.50;;
67665;SDS011;54448;51.472;-2.574;2023-04-15T02:58:58;8.82;;;3.20;;
67665;SDS011;54448;51.472;-2.574;2023-04-15T03:01:23;5.70;;;2.85;;
67665;SDS011;54448;51.472;-2.574;2023-04-15T03:03:50;9.05;;;3.05;;
67665;SDS011;54448;51.472;-2.574;2023-04-15T03:06:15;9.45;;;3.33;;
67665;SDS011;54448;51.472;-2.574;2023-04-15T03:08:40;4.80;;;2.78;;
67665;SDS011;54448;51.472;-2.574;2023-04-15T03:11:06;5.20;;;3.10;;
67665;SDS011;54448;51.472;-2.574;2023-04-15T03:13:32;8.07;;;3.28;;
67665;SDS011;54448;51.472;-2.574;2023-04-15T03:15:57;10.38;;;3.58;;
67665;SDS011;54448;51.472;-2.574;2023-04-15T03:18:22;11.18;;;3.70;;
67665;SDS011;54448;51.472;-2.574;2023-04-15T03:20:48;8.07;;;3.78;;
67665;SDS011;54448;51.472;-2.574;2023-04-15T03:23:13;12.88;;;4.28;;
67665;SDS011;54448;51.472;-2.574;2023-04-15T03:25:38;8.60;;;3.85;;
67665;SDS011;54448;51.472;-2.574;2023-04-15T03:28:04;9.40;;;3.42;;
67665;SDS011;54448;51.472;-2.574;2023-04-15T03:30:30;9.80;;;3.45;;
67665;SDS011;54448;51.472;-2.574;2023-04-15T03:32:55;11.90;;;3.70;;
67665;SDS011;54448;51.472;-2.574;2023-04-15T03:35:20;10.07;;;3.65;;
67665;SDS011;54448;51.472;-2.574;2023-04-15T03:37:46;13.80;;;3.63;;
67665;SDS011;54448;51.472;-2.574;2023-04-15T03:40:13;12.77;;;4.00;;
67665;SDS011;54448;51.472;-2.574;2023-04-15T03:42:38;10.90;;;3.63;;
67665;SDS011;54448;51.472;-2.574;2023-04-15T03:45:03;8.68;;;3.72;;
67665;SDS011;54448;51.472;-2.574;2023-04-15T03:47:29;7.15;;;3.75;;
67665;SDS011;54448;51.472;-2.574;2023-04-15T03:49:55;14.73;;;4.40;;
67665;SDS011;54448;51.472;-2.574;2023-04-15T03:52:20;16.60;;;3.88;;
67665;SDS011;54448;51.472;-2.574;2023-04-15T03:54:45;7.72;;;3.78;;
67665;SDS011;54448;51.472;-2.574;2023-04-15T03:57:11;10.52;;;3.97;;
67665;SDS011;54448;51.472;-2.574;2023-04-15T03:59:37;9.93;;;3.95;;
67665;SDS011;54448;51.472;-2.574;2023-04-15T04:02:02;9.80;;;4.03;;
67665;SDS011;54448;51.472;-2.574;2023-04-15T04:04:27;11.65;;;4.68;;
67665;SDS011;54448;51.472;-2.574;2023-04-15T04:06:53;8.00;;;3.90;;
67665;SDS011;54448;51.472;-2.574;2023-04-15T04:09:18;8.02;;;3.53;;
67665;SDS011;54448;51.472;-2.574;2023-04-15T04:11:43;9.18;;;3.55;;
67665;SDS011;54448;51.472;-2.574;2023-04-15T04:14:09;20.45;;;4.30;;
67665;SDS011;54448;51.472;-2.574;2023-04-15T04:16:35;10.02;;;3.50;;
67665;SDS011;54448;51.472;-2.574;2023-04-15T04:19:00;12.65;;;4.10;;
67665;SDS011;54448;51.472;-2.574;2023-04-15T04:21:26;12.32;;;3.72;;
67665;SDS011;54448;51.472;-2.574;2023-04-15T04:23:52;12.43;;;4.03;;
67665;SDS011;54448;51.472;-2.574;2023-04-15T04:26:17;9.70;;;3.75;;
67665;SDS011;54448;51.472;-2.574;2023-04-15T04:28:43;9.20;;;3.85;;
67665;SDS011;54448;51.472;-2.574;2023-04-15T04:31:09;15.32;;;4.25;;
67665;SDS011;54448;51.472;-2.574;2023-04-15T04:33:34;11.95;;;4.20;;
67665;SDS011;54448;51.472;-2.574;2023-04-15T04:35:59;8.52;;;4.90;;
67665;SDS011;54448;51.472;-2.574;2023-04-15T04:38:25;8.55;;;3.92;;
67665;SDS011;54448;51.472;-2.574;2023-04-15T04:40:50;13.90;;;4.10;;
67665;SDS011;54448;51.472;-2.574;2023-04-15T04:43:16;10.73;;;4.70;;
67665;SDS011;54448;51.472;-2.574;2023-04-15T04:45:41;14.27;;;6.10;;
67665;SDS011;54448;51.472;-2.574;2023-04-15T04:48:06;14.93;;;5.53;;
67665;SDS011;54448;51.472;-2.574;2023-04-15T04:50:33;14.40;;;5.38;;
67665;SDS011;54448;51.472;-2.574;2023-04-15T04:52:59;10.20;;;4.82;;
67665;SDS011;54448;51.472;-2.574;2023-04-15T04:55:25;11.73;;;4.70;;
67665;SDS011;54448;51.472;-2.574;2023-04-15T04:57:51;11.60;;;4.72;;
67665;SDS011;54448;51.472;-2.574;2023-04-15T05:00:16;10.60;;;4.90;;
67665;SDS011;54448;51.472;-2.574;2023-04-15T05:02:41;11.18;;;4.35;;
67665;SDS011;54448;51.472;-2.574;2023-04-15T05:05:08;20.83;;;7.55;;
67665;SDS011;54448;51.472;-2.574;2023-04-15T05:07:34;22.10;;;7.07;;
67665;SDS011;54448;51.472;-2.574;2023-04-15T05:09:59;21.13;;;6.88;;
67665;SDS011;54448;51.472;-2.574;2023-04-15T05:12:25;25.38;;;9.95;;
67665;SDS011;54448;51.472;-2.574;2023-04-15T05:14:50;23.63;;;7.95;;
67665;SDS011;54448;51.472;-2.574;2023-04-15T05:17:15;28.75;;;8.15;;
67665;SDS011;54448;51.472;-2.574;2023-04-15T05:19:41;17.65;;;7.30;;
67665;SDS011;54448;51.472;-2.574;2023-04-15T05:22:06;16.95;;;7.10;;
67665;SDS011;54448;51.472;-2.574;2023-04-15T05:24:32;14.15;;;6.78;;
67665;SDS011;54448;51.472;-2.574;2023-04-15T05:26:57;19.27;;;7.28;;
67665;SDS011;54448;51.472;-2.574;2023-04-15T05:29:22;29.70;;;9.75;;
67665;SDS011;54448;51.472;-2.574;2023-04-15T05:31:48;28.63;;;11.13;;
67665;SDS011;54448;51.472;-2.574;2023-04-15T05:34:13;24.27;;;9.40;;
67665;SDS011;54448;51.472;-2.574;2023-04-15T05:36:40;20.65;;;8.93;;
67665;SDS011;54448;51.472;-2.574;2023-04-15T05:39:06;18.33;;;8.05;;
67665;SDS011;54448;51.472;-2.574;2023-04-15T05:41:31;22.50;;;9.20;;
67665;SDS011;54448;51.472;-2.574;2023-04-15T05:43:56;21.02;;;8.23;;
67665;SDS011;54448;51.472;-2.574;2023-04-15T05:46:22;23.25;;;9.13;;
67665;SDS011;54448;51.472;-2.574;2023-04-15T05:48:47;17.92;;;7.25;;
67665;SDS011;54448;51.472;-2.574;2023-04-15T05:51:13;20.52;;;7.70;;
67665;SDS011;54448;51.472;-2.574;2023-04-15T05:53:38;24.90;;;8.80;;
67665;SDS011;54448;51.472;-2.574;2023-04-15T05:56:05;20.98;;;9.15;;
67665;SDS011;54448;51.472;-2.574;2023-04-15T05:58:31;21.55;;;9.60;;
67665;SDS011;54448;51.472;-2.574;2023-04-15T06:00:56;16.92;;;8.98;;
67665;SDS011;54448;51.472;-2.574;2023-04-15T06:03:22;22.95;;;9.13;;
67665;SDS011;54448;51.472;-2.574;2023-04-15T06:05:47;20.67;;;8.70;;
67665;SDS011;54448;51.472;-2.574;2023-04-15T06:08:13;19.55;;;9.02;;
67665;SDS011;54448;51.472;-2.574;2023-04-15T06:10:38;21.73;;;10.32;;
67665;SDS011;54448;51.472;-2.574;2023-04-15T06:13:04;20.23;;;8.82;;
67665;SDS011;54448;51.472;-2.574;2023-04-15T06:15:29;31.27;;;14.50;;
67665;SDS011;54448;51.472;-2.574;2023-04-15T06:17:55;26.13;;;11.20;;
67665;SDS011;54448;51.472;-2.574;2023-04-15T06:20:20;20.98;;;9.38;;
67665;SDS011;54448;51.472;-2.574;2023-04-15T06:22:46;25.23;;;10.15;;
67665;SDS011;54448;51.472;-2.574;2023-04-15T06:25:12;25.08;;;10.73;;
67665;SDS011;54448;51.472;-2.574;2023-04-15T06:27:38;24.70;;;9.75;;
67665;SDS011;54448;51.472;-2.574;2023-04-15T06:30:04;17.58;;;8.57;;
67665;SDS011;54448;51.472;-2.574;2023-04-15T06:32:31;21.90;;;8.35;;
67665;SDS011;54448;51.472;-2.574;2023-04-15T06:34:56;18.23;;;8.43;;
67665;SDS011;54448;51.472;-2.574;2023-04-15T06:37:22;22.63;;;8.40;;
67665;SDS011;54448;51.472;-2.574;2023-04-15T06:39:47;20.83;;;8.15;;
67665;SDS011;54448;51.472;-2.574;2023-04-15T06:42:13;18.08;;;8.38;;
67665;SDS011;54448;51.472;-2.574;2023-04-15T06:44:38;14.00;;;8.00;;
67665;SDS011;54448;51.472;-2.574;2023-04-15T06:47:03;15.23;;;8.00;;
67665;SDS011;54448;51.472;-2.574;2023-04-15T06:49:29;23.20;;;8.18;;
67665;SDS011;54448;51.472;-2.574;2023-04-15T06:51:54;19.23;;;7.68;;
67665;SDS011;54448;51.472;-2.574;2023-04-15T06:54:20;15.55;;;7.72;;
67665;SDS011;54448;51.472;-2.574;2023-04-15T06:56:45;13.05;;;7.30;;
67665;SDS011;54448;51.472;-2.574;2023-04-15T06:59:11;18.70;;;7.50;;
67665;SDS011;54448;51.472;-2.574;2023-04-15T07:01:40;19.63;;;7.55;;
67665;SDS011;54448;51.472;-2.574;2023-04-15T07:04:06;19.38;;;7.65;;
67665;SDS011;54448;51.472;-2.574;2023-04-15T07:06:31;17.90;;;7.25;;
67665;SDS011;54448;51.472;-2.574;2023-04-15T07:08:57;18.27;;;6.05;;
67665;SDS011;54448;51.472;-2.574;2023-04-15T07:11:22;18.10;;;7.50;;
67665;SDS011;54448;51.472;-2.574;2023-04-15T07:13:47;13.45;;;5.88;;
67665;SDS011;54448;51.472;-2.574;2023-04-15T07:16:13;16.05;;;5.38;;
67665;SDS011;54448;51.472;-2.574;2023-04-15T07:18:38;11.10;;;5.28;;
67665;SDS011;54448;51.472;-2.574;2023-04-15T07:21:04;11.35;;;4.95;;
67665;SDS011;54448;51.472;-2.574;2023-04-15T07:23:29;13.82;;;4.72;;
67665;SDS011;54448;51.472;-2.574;2023-04-15T07:25:55;12.52;;;5.13;;
67665;SDS011;54448;51.472;-2.574;2023-04-15T07:28:21;17.38;;;6.38;;
67665;SDS011;54448;51.472;-2.574;2023-04-15T07:30:47;8.45;;;4.95;;
67665;SDS011;54448;51.472;-2.574;2023-04-15T07:33:12;14.20;;;5.10;;
67665;SDS011;54448;51.472;-2.574;2023-04-15T07:35:38;16.38;;;6.22;;
67665;SDS011;54448;51.472;-2.574;2023-04-15T07:38:03;9.82;;;4.97;;
67665;SDS011;54448;51.472;-2.574;2023-04-15T07:40:28;10.18;;;4.85;;
67665;SDS011;54448;51.472;-2.574;2023-04-15T07:42:55;9.07;;;4.93;;
67665;SDS011;54448;51.472;-2.574;2023-04-15T07:45:21;21.65;;;7.63;;
67665;SDS011;54448;51.472;-2.574;2023-04-15T07:47:46;10.30;;;4.97;;
67665;SDS011;54448;51.472;-2.574;2023-04-15T07:50:12;8.95;;;4.53;;
67665;SDS011;54448;51.472;-2.574;2023-04-15T07:52:37;15.13;;;5.15;;
67665;SDS011;54448;51.472;-2.574;2023-04-15T07:55:06;14.30;;;4.38;;
67665;SDS011;54448;51.472;-2.574;2023-04-15T07:57:33;9.43;;;4.00;;
67665;SDS011;54448;51.472;-2.574;2023-04-15T07:59:59;7.82;;;3.60;;
67665;SDS011;54448;51.472;-2.574;2023-04-15T08:02:25;7.35;;;2.33;;
67665;SDS011;54448;51.472;-2.574;2023-04-15T08:04:50;10.73;;;2.35;;
67665;SDS011;54448;51.472;-2.574;2023-04-15T08:07:16;7.10;;;2.10;;
67665;SDS011;54448;51.472;-2.574;2023-04-15T08:09:42;5.72;;;2.03;;
67665;SDS011;54448;51.472;-2.574;2023-04-15T08:12:07;5.57;;;1.80;;
67665;SDS011;54448;51.472;-2.574;2023-04-15T08:14:36;9.73;;;1.98;;
67665;SDS011;54448;51.472;-2.574;2023-04-15T08:17:01;6.05;;;2.05;;
67665;SDS011;54448;51.472;-2.574;2023-04-15T08:19:28;7.80;;;2.00;;
67665;SDS011;54448;51.472;-2.574;2023-04-15T08:21:53;11.35;;;2.20;;
67665;SDS011;54448;51.472;-2.574;2023-04-15T08:24:19;7.43;;;1.95;;
67665;SDS011;54448;51.472;-2.574;2023-04-15T08:26:45;7.50;;;2.00;;
67665;SDS011;54448;51.472;-2.574;2023-04-15T08:29:11;6.55;;;1.85;;
67665;SDS011;54448;51.472;-2.574;2023-04-15T08:31:36;10.52;;;3.08;;
67665;SDS011;54448;51.472;-2.574;2023-04-15T08:34:02;8.05;;;2.38;;
67665;SDS011;54448;51.472;-2.574;2023-04-15T08:36:27;7.90;;;2.33;;
67665;SDS011;54448;51.472;-2.574;2023-04-15T08:38:53;4.60;;;1.95;;
67665;SDS011;54448;51.472;-2.574;2023-04-15T08:41:21;8.90;;;1.90;;
67665;SDS011;54448;51.472;-2.574;2023-04-15T08:44:00;21.48;;;3.10;;
67665;SDS011;54448;51.472;-2.574;2023-04-15T08:46:26;5.93;;;1.90;;
67665;SDS011;54448;51.472;-2.574;2023-04-15T08:48:52;9.43;;;2.40;;
67665;SDS011;54448;51.472;-2.574;2023-04-15T08:51:20;6.55;;;2.22;;
67665;SDS011;54448;51.472;-2.574;2023-04-15T08:53:46;9.65;;;2.22;;
67665;SDS011;54448;51.472;-2.574;2023-04-15T08:56:11;8.98;;;1.98;;
67665;SDS011;54448;51.472;-2.574;2023-04-15T08:58:39;5.53;;;1.80;;
67665;SDS011;54448;51.472;-2.574;2023-04-15T09:01:05;8.88;;;2.08;;
67665;SDS011;54448;51.472;-2.574;2023-04-15T09:03:31;12.80;;;3.30;;
67665;SDS011;54448;51.472;-2.574;2023-04-15T09:05:56;9.88;;;2.67;;
67665;SDS011;54448;51.472;-2.574;2023-04-15T09:08:22;9.45;;;2.28;;
67665;SDS011;54448;51.472;-2.574;2023-04-15T09:10:47;10.93;;;2.53;;
67665;SDS011;54448;51.472;-2.574;2023-04-15T09:13:13;9.75;;;1.98;;
67665;SDS011;54448;51.472;-2.574;2023-04-15T09:15:38;8.70;;;2.15;;
67665;SDS011;54448;51.472;-2.574;2023-04-15T09:18:04;8.85;;;2.00;;
67665;SDS011;54448;51.472;-2.574;2023-04-15T09:20:32;6.50;;;2.40;;
67665;SDS011;54448;51.472;-2.574;2023-04-15T09:23:10;6.63;;;2.10;;
67665;SDS011;54448;51.472;-2.574;2023-04-15T09:25:37;8.68;;;2.25;;
67665;SDS011;54448;51.472;-2.574;2023-04-15T09:28:04;11.55;;;2.15;;
67665;SDS011;54448;51.472;-2.574;2023-04-15T09:30:29;10.35;;;2.10;;
67665;SDS011;54448;51.472;-2.574;2023-04-15T09:32:56;9.93;;;2.30;;
67665;SDS011;54448;51.472;-2.574;2023-04-15T09:35:23;5.13;;;1.73;;
67665;SDS011;54448;51.472;-2.574;2023-04-15T09:37:52;9.20;;;2.33;;
67665;SDS011;54448;51.472;-2.574;2023-04-15T09:42:56;10.15;;;2.10;;
67665;SDS011;54448;51.472;-2.574;2023-04-15T09:45:22;8.50;;;2.63;;
67665;SDS011;54448;51.472;-2.574;2023-04-15T09:47:48;8.60;;;2.28;;
67665;SDS011;54448;51.472;-2.574;2023-04-15T09:50:15;11.48;;;2.88;;
67665;SDS011;54448;51.472;-2.574;2023-04-15T09:52:41;5.95;;;2.10;;
67665;SDS011;54448;51.472;-2.574;2023-04-15T09:55:07;9.43;;;2.10;;
67665;SDS011;54448;51.472;-2.574;2023-04-15T09:57:33;6.30;;;2.17;;
67665;SDS011;54448;51.472;-2.574;2023-04-15T10:00:00;6.45;;;2.28;;
67665;SDS011;54448;51.472;-2.574;2023-04-15T10:02:25;6.15;;;1.60;;
67665;SDS011;54448;51.472;-2.574;2023-04-15T10:04:51;7.80;;;1.67;;
67665;SDS011;54448;51.472;-2.574;2023-04-15T10:07:16;9.55;;;1.73;;
67665;SDS011;54448;51.472;-2.574;2023-04-15T10:09:44;11.25;;;3.85;;
67665;SDS011;54448;51.472;-2.574;2023-04-15T10:12:10;11.05;;;2.78;;
67665;SDS011;54448;51.472;-2.574;2023-04-15T10:14:36;11.23;;;2.95;;
67665;SDS011;54448;51.472;-2.574;2023-04-15T10:17:03;9.00;;;3.08;;
67665;SDS011;54448;51.472;-2.574;2023-04-15T10:19:32;7.95;;;1.95;;
67665;SDS011;54448;51.472;-2.574;2023-04-15T10:21:58;10.45;;;1.95;;
67665;SDS011;54448;51.472;-2.574;2023-04-15T10:24:24;7.63;;;2.33;;
67665;SDS011;54448;51.472;-2.574;2023-04-15T10:26:50;5.18;;;2.10;;
67665;SDS011;54448;51.472;-2.574;2023-04-15T10:29:16;8.85;;;1.95;;
67665;SDS011;54448;51.472;-2.574;2023-04-15T10:31:41;7.03;;;2.15;;
67665;SDS011;54448;51.472;-2.574;2023-04-15T10:34:07;8.52;;;1.60;;
67665;SDS011;54448;51.472;-2.574;2023-04-15T10:36:33;4.07;;;1.90;;
67665;SDS011;54448;51.472;-2.574;2023-04-15T10:38:58;9.27;;;1.73;;
67665;SDS011;54448;51.472;-2.574;2023-04-15T10:41:24;5.57;;;1.42;;
67665;SDS011;54448;51.472;-2.574;2023-04-15T10:46:22;9.63;;;1.98;;
67665;SDS011;54448;51.472;-2.574;2023-04-15T10:49:06;6.78;;;1.85;;
67665;SDS011;54448;51.472;-2.574;2023-04-15T10:51:33;10.93;;;2.00;;
67665;SDS011;54448;51.472;-2.574;2023-04-15T10:54:05;5.03;;;1.70;;
67665;SDS011;54448;51.472;-2.574;2023-04-15T10:56:33;5.72;;;2.13;;
67665;SDS011;54448;51.472;-2.574;2023-04-15T10:58:59;4.68;;;1.73;;
67665;SDS011;54448;51.472;-2.574;2023-04-15T11:01:48;4.22;;;1.48;;
67665;SDS011;54448;51.472;-2.574;2023-04-15T11:04:54;4.40;;;1.40;;
67665;SDS011;54448;51.472;-2.574;2023-04-15T11:09:59;5.90;;;2.00;;
67665;SDS011;54448;51.472;-2.574;2023-04-15T11:12:35;9.02;;;2.03;;
67665;SDS011;54448;51.472;-2.574;2023-04-15T11:17:56;4.53;;;2.38;;
67665;SDS011;54448;51.472;-2.574;2023-04-15T11:20:22;5.78;;;2.25;;
67665;SDS011;54448;51.472;-2.574;2023-04-15T11:22:48;6.63;;;2.33;;
67665;SDS011;54448;51.472;-2.574;2023-04-15T11:25:21;9.13;;;2.42;;
67665;SDS011;54448;51.472;-2.574;2023-04-15T11:27:47;7.85;;;2.17;;
67665;SDS011;54448;51.472;-2.574;2023-04-15T11:30:21;9.57;;;2.10;;
67665;SDS011;54448;51.472;-2.574;2023-04-15T11:32:47;9.10;;;2.03;;
67665;SDS011;54448;51.472;-2.574;2023-04-15T11:35:15;6.45;;;2.17;;
67665;SDS011;54448;51.472;-2.574;2023-04-15T11:37:41;5.95;;;2.08;;
67665;SDS011;54448;51.472;-2.574;2023-04-15T11:40:07;5.38;;;2.03;;
67665;SDS011;54448;51.472;-2.574;2023-04-15T11:42:33;6.47;;;2.47;;
67665;SDS011;54448;51.472;-2.574;2023-04-15T11:45:14;6.20;;;2.22;;
67665;SDS011;54448;51.472;-2.574;2023-04-15T11:47:40;10.23;;;2.75;;
67665;SDS011;54448;51.472;-2.574;2023-04-15T11:50:16;7.97;;;2.42;;
67665;SDS011;54448;51.472;-2.574;2023-04-15T11:55:24;6.60;;;2.20;;
67665;SDS011;54448;51.472;-2.574;2023-04-15T11:58:04;5.35;;;2.28;;
67665;SDS011;54448;51.472;-2.574;2023-04-15T12:00:41;6.00;;;2.65;;
67665;SDS011;54448;51.472;-2.574;2023-04-15T12:03:21;5.03;;;2.58;;
67665;SDS011;54448;51.472;-2.574;2023-04-15T12:08:54;5.68;;;2.28;;
67665;SDS011;54448;51.472;-2.574;2023-04-15T12:13:51;6.40;;;2.00;;
67665;SDS011;54448;51.472;-2.574;2023-04-15T12:16:18;6.18;;;2.03;;
67665;SDS011;54448;51.472;-2.574;2023-04-15T12:18:49;5.13;;;2.10;;
67665;SDS011;54448;51.472;-2.574;2023-04-15T12:21:17;6.35;;;2.17;;
67665;SDS011;54448;51.472;-2.574;2023-04-15T12:23:50;6.05;;;1.88;;
67665;SDS011;54448;51.472;-2.574;2023-04-15T12:26:28;4.72;;;2.20;;
67665;SDS011;54448;51.472;-2.574;2023-04-15T12:31:34;5.85;;;1.92;;
67665;SDS011;54448;51.472;-2.574;2023-04-15T12:34:05;5.95;;;2.00;;
67665;SDS011;54448;51.472;-2.574;2023-04-15T12:36:31;4.18;;;1.77;;
67665;SDS011;54448;51.472;-2.574;2023-04-15T12:39:03;4.95;;;1.45;;
67665;SDS011;54448;51.472;-2.574;2023-04-15T12:41:29;5.55;;;1.70;;
67665;SDS011;54448;51.472;-2.574;2023-04-15T12:43:55;4.35;;;1.80;;
67665;SDS011;54448;51.472;-2.574;2023-04-15T12:46:20;5.55;;;1.70;;
67665;SDS011;54448;51.472;-2.574;2023-04-15T12:48:46;2.88;;;1.52;;
67665;SDS011;54448;51.472;-2.574;2023-04-15T12:51:11;3.50;;;1.70;;
67665;SDS011;54448;51.472;-2.574;2023-04-15T12:53:37;7.15;;;2.60;;
67665;SDS011;54448;51.472;-2.574;2023-04-15T12:56:03;8.65;;;2.67;;
67665;SDS011;54448;51.472;-2.574;2023-04-15T12:58:28;5.15;;;2.55;;
67665;SDS011;54448;51.472;-2.574;2023-04-15T13:00:53;7.60;;;3.05;;
67665;SDS011;54448;51.472;-2.574;2023-04-15T13:03:19;3.60;;;1.77;;
67665;SDS011;54448;51.472;-2.574;2023-04-15T13:05:44;2.97;;;1.90;;
67665;SDS011;54448;51.472;-2.574;2023-04-15T13:08:10;4.20;;;1.80;;
67665;SDS011;54448;51.472;-2.574;2023-04-15T13:10:35;9.27;;;2.20;;
67665;SDS011;54448;51.472;-2.574;2023-04-15T13:13:01;5.18;;;1.80;;
67665;SDS011;54448;51.472;-2.574;2023-04-15T13:15:27;9.73;;;1.90;;
67665;SDS011;54448;51.472;-2.574;2023-04-15T13:17:53;4.85;;;2.13;;
67665;SDS011;54448;51.472;-2.574;2023-04-15T13:20:18;5.15;;;2.42;;
67665;SDS011;54448;51.472;-2.574;2023-04-15T13:22:44;3.30;;;1.80;;
67665;SDS011;54448;51.472;-2.574;2023-04-15T13:25:10;6.22;;;1.98;;
67665;SDS011;54448;51.472;-2.574;2023-04-15T13:27:35;3.25;;;1.80;;
67665;SDS011;54448;51.472;-2.574;2023-04-15T13:30:01;4.95;;;1.52;;
67665;SDS011;54448;51.472;-2.574;2023-04-15T13:32:27;4.60;;;1.98;;
67665;SDS011;54448;51.472;-2.574;2023-04-15T13:34:52;3.53;;;1.83;;
67665;SDS011;54448;51.472;-2.574;2023-04-15T13:37:19;4.25;;;1.90;;
67665;SDS011;54448;51.472;-2.574;2023-04-15T13:39:44;6.65;;;1.95;;
67665;SDS011;54448;51.472;-2.574;2023-04-15T13:42:09;4.35;;;1.95;;
67665;SDS011;54448;51.472;-2.574;2023-04-15T13:44:35;6.43;;;2.10;;
67665;SDS011;54448;51.472;-2.574;2023-04-15T13:47:00;6.70;;;2.33;;
67665;SDS011;54448;51.472;-2.574;2023-04-15T13:49:25;4.32;;;1.98;;
67665;SDS011;54448;51.472;-2.574;2023-04-15T13:51:51;5.53;;;1.98;;
67665;SDS011;54448;51.472;-2.574;2023-04-15T13:54:16;2.75;;;1.67;;
67665;SDS011;54448;51.472;-2.574;2023-04-15T13:56:42;6.05;;;1.70;;
67665;SDS011;54448;51.472;-2.574;2023-04-15T13:59:07;6.38;;;1.80;;
67665;SDS011;54448;51.472;-2.574;2023-04-15T14:01:33;7.38;;;1.77;;
67665;SDS011;54448;51.472;-2.574;2023-04-15T14:03:58;4.93;;;1.48;;
67665;SDS011;54448;51.472;-2.574;2023-04-15T14:06:24;4.07;;;1.80;;
67665;SDS011;54448;51.472;-2.574;2023-04-15T14:08:51;10.70;;;1.83;;
67665;SDS011;54448;51.472;-2.574;2023-04-15T14:11:16;3.60;;;1.55;;
67665;SDS011;54448;51.472;-2.574;2023-04-15T14:13:42;2.72;;;1.77;;
67665;SDS011;54448;51.472;-2.574;2023-04-15T14:16:07;2.72;;;1.77;;
67665;SDS011;54448;51.472;-2.574;2023-04-15T14:18:32;6.35;;;1.77;;
67665;SDS011;54448;51.472;-2.574;2023-04-15T14:20:58;3.20;;;1.80;;
67665;SDS011;54448;51.472;-2.574;2023-04-15T14:23:23;3.33;;;1.65;;
67665;SDS011;54448;51.472;-2.574;2023-04-15T14:25:49;5.18;;;1.98;;
67665;SDS011;54448;51.472;-2.574;2023-04-15T14:28:15;3.05;;;1.65;;
67665;SDS011;54448;51.472;-2.574;2023-04-15T14:30:41;7.63;;;2.17;;
67665;SDS011;54448;51.472;-2.574;2023-04-15T14:33:06;5.68;;;1.90;;
67665;SDS011;54448;51.472;-2.574;2023-04-15T14:35:31;4.18;;;1.70;;
67665;SDS011;54448;51.472;-2.574;2023-04-15T14:37:57;4.95;;;2.30;;
67665;SDS011;54448;51.472;-2.574;2023-04-15T14:40:22;5.13;;;1.60;;
67665;SDS011;54448;51.472;-2.574;2023-04-15T14:42:50;4.20;;;1.92;;
67665;SDS011;54448;51.472;-2.574;2023-04-15T14:45:16;5.75;;;1.80;;